Terminal Aerodrome Forecast
Issued by NWS Amarillo, TX

Home | Current Version | Previous Version | Text Only | Print | Product List | Glossary On
Versions: 1 2 3 4 5 6 7 8 9 10 11 12 13 14 15 16 17
542
FTUS44 KAMA 302323
TAFAMA
TAF
KAMA 302323Z 0100/0124 31025G35KT P6SM SCT130
     FM010200 32013G20KT P6SM SKC
     FM010600 27010KT P6SM SKC
     FM012100 22008KT P6SM SKC=

USA.gov is the U.S. government's official web portal to all federal, state and local government web resources and services.